Time;durP1;ratioP1;P1;durP2;ratioP2;P2;SDS_P1;SDS_P2;PMS_P1;PMS_P2;Temp;Humidity;BMP_temperature;BMP_pressure;BME280_temperature;BME280_humidity;BME280_pressure;Samples;Min_cycle;Max_cycle;Signal;HPM_P1;HPM_P2
2023/10/23 00:00:38;;;;;;;8.90;6.07;;;;;;;-145.87;100.00;54973.53;2090491;28;20052;-59
2023/10/23 00:01:40;;;;;;;12.07;5.68;;;;;;;-145.87;100.00;54973.53;2090973;28;20481;-60
2023/10/23 00:02:41;;;;;;;9.65;5.93;;;;;;;-145.87;100.00;54973.53;2090873;28;20396;-59
2023/10/23 00:03:42;;;;;;;11.07;5.63;;;;;;;-145.87;100.00;54973.53;2090797;28;20041;-60
2023/10/23 00:04:43;;;;;;;9.98;6.20;;;;;;;-145.87;100.00;54973.53;2091055;28;20037;-58
2023/10/23 00:05:44;;;;;;;8.52;5.53;;;;;;;-145.87;100.00;54973.53;2090708;28;20047;-59
2023/10/23 00:06:45;;;;;;;11.50;6.18;;;;;;;-145.87;100.00;54973.53;2090906;28;20477;-60
2023/10/23 00:07:47;;;;;;;9.38;5.78;;;;;;;-145.87;100.00;54973.53;2091166;28;20041;-59
2023/10/23 00:08:48;;;;;;;8.07;5.28;;;;;;;-145.87;100.00;54973.53;2090727;28;20473;-59
2023/10/23 00:09:49;;;;;;;9.10;5.72;;;;;;;-145.87;100.00;54973.53;2090813;28;20049;-59
2023/10/23 00:10:50;;;;;;;9.90;5.70;;;;;;;-145.87;100.00;54973.53;2090715;28;20049;-59
2023/10/23 00:11:51;;;;;;;10.73;5.82;;;;;;;-145.87;100.00;54973.53;2090655;28;20044;-59
2023/10/23 00:12:52;;;;;;;11.65;6.22;;;;;;;-145.87;100.00;54973.53;2091024;28;20508;-59
2023/10/23 00:13:53;;;;;;;8.48;5.88;;;;;;;-145.87;100.00;54973.53;2090653;28;20049;-59
2023/10/23 00:14:55;;;;;;;10.43;6.13;;;;;;;-145.87;100.00;54973.53;2090241;28;20385;-59
2023/10/23 00:15:56;;;;;;;8.27;5.85;;;;;;;-145.87;100.00;54973.53;2090152;28;20485;-59
2023/10/23 00:16:57;;;;;;;11.13;5.90;;;;;;;-145.87;100.00;54973.53;2090826;28;20049;-58
2023/10/23 00:17:58;;;;;;;10.25;5.57;;;;;;;-145.87;100.00;54973.53;2090536;28;20045;-60
2023/10/23 00:18:59;;;;;;;10.90;6.15;;;;;;;-145.87;100.00;54973.53;2090721;28;20166;-60
2023/10/23 00:20:02;;;;;;;11.23;6.13;;;;;;;-145.87;100.00;54973.53;2090701;28;20477;-60
2023/10/23 00:21:03;;;;;;;10.80;5.80;;;;;;;-145.87;100.00;54973.53;2090663;28;20045;-59
2023/10/23 00:22:04;;;;;;;9.70;6.00;;;;;;;-145.87;100.00;54973.53;2090614;28;20397;-59
2023/10/23 00:23:05;;;;;;;13.20;6.90;;;;;;;-145.87;100.00;54973.53;2090619;28;20045;-59
2023/10/23 00:24:06;;;;;;;10.95;6.20;;;;;;;-145.87;100.00;54973.53;2090709;28;20175;-59
2023/10/23 00:25:07;;;;;;;10.65;6.28;;;;;;;-145.87;100.00;54973.53;2090517;28;20393;-59
2023/10/23 00:26:09;;;;;;;8.13;5.38;;;;;;;-145.87;100.00;54973.53;2090413;28;20041;-59
2023/10/23 00:27:11;;;;;;;8.30;5.72;;;;;;;-145.87;100.00;54973.53;2090483;28;20072;-60
2023/10/23 00:28:13;;;;;;;8.02;5.68;;;;;;;-145.87;100.00;54973.53;2090706;28;20052;-60
2023/10/23 00:29:14;;;;;;;9.82;5.57;;;;;;;-145.87;100.00;54973.53;2090467;28;20493;-59
2023/10/23 00:30:15;;;;;;;8.68;6.00;;;;;;;-145.87;100.00;54973.53;2090169;28;20051;-60
2023/10/23 00:31:16;;;;;;;8.98;5.43;;;;;;;-145.87;100.00;54973.53;2089514;28;20045;-58
2023/10/23 00:32:18;;;;;;;9.43;6.43;;;;;;;-145.87;100.00;54973.53;2090534;28;20049;-58
2023/10/23 00:33:19;;;;;;;7.97;6.05;;;;;;;-145.87;100.00;54973.53;2089537;28;20049;-58
2023/10/23 00:34:20;;;;;;;9.25;6.22;;;;;;;-145.87;100.00;54973.53;2089642;28;20064;-59
2023/10/23 00:35:21;;;;;;;8.63;5.82;;;;;;;-145.87;100.00;54973.53;2090377;28;20504;-59
2023/10/23 00:36:23;;;;;;;11.10;6.13;;;;;;;-145.87;100.00;54973.53;2090340;28;20053;-59
2023/10/23 00:37:24;;;;;;;9.82;6.43;;;;;;;-145.87;100.00;54973.53;2090045;28;20044;-58
2023/10/23 00:38:26;;;;;;;9.77;6.78;;;;;;;-145.87;100.00;54973.53;2090471;28;20063;-58
2023/10/23 00:39:27;;;;;;;11.68;6.57;;;;;;;-145.87;100.00;54973.53;2089640;28;20061;-60
2023/10/23 00:40:29;;;;;;;8.10;6.40;;;;;;;-145.87;100.00;54973.53;2082016;28;20518;-60
2023/10/23 00:41:30;;;;;;;10.48;6.50;;;;;;;-145.87;100.00;54973.53;2081643;28;20058;-60
2023/10/23 00:42:31;;;;;;;11.50;6.80;;;;;;;-145.87;100.00;54973.53;2090250;28;20393;-59
2023/10/23 00:43:34;;;;;;;11.23;6.40;;;;;;;-145.87;100.00;54973.53;2090370;28;20067;-59
2023/10/23 00:44:35;;;;;;;9.52;6.43;;;;;;;-145.87;100.00;54973.53;2089825;28;20504;-59
2023/10/23 00:45:36;;;;;;;9.95;6.15;;;;;;;-145.87;100.00;54973.53;2089815;28;20045;-60
2023/10/23 00:46:37;;;;;;;13.32;7.25;;;;;;;-145.87;100.00;54973.53;2081601;28;20037;-59
2023/10/23 00:47:38;;;;;;;8.77;6.35;;;;;;;-145.87;100.00;54973.53;2081459;28;20156;-59
2023/10/23 00:48:39;;;;;;;11.45;7.15;;;;;;;-145.87;100.00;54973.53;2090613;28;20611;-59
2023/10/23 00:49:40;;;;;;;12.57;6.82;;;;;;;-145.87;100.00;54973.53;2089204;28;20052;-59
2023/10/23 00:50:41;;;;;;;10.25;6.45;;;;;;;-145.87;100.00;54973.53;2089737;28;20048;-59
2023/10/23 00:51:43;;;;;;;11.85;6.28;;;;;;;-145.87;100.00;54973.53;2074071;28;20433;-59
2023/10/23 00:52:44;;;;;;;10.05;6.38;;;;;;;-145.87;100.00;54973.53;2065298;28;20046;-60
2023/10/23 00:53:45;;;;;;;8.65;6.45;;;;;;;-145.87;100.00;54973.53;2082015;28;20060;-60
2023/10/23 00:54:46;;;;;;;10.02;6.38;;;;;;;-145.87;100.00;54973.53;2081312;28;20076;-58
2023/10/23 00:55:47;;;;;;;8.65;6.05;;;;;;;-145.87;100.00;54973.53;2081575;28;20509;-60
2023/10/23 00:56:48;;;;;;;10.80;6.30;;;;;;;-145.87;100.00;54973.53;2081347;28;20041;-58
2023/10/23 00:57:50;;;;;;;10.52;6.57;;;;;;;-145.87;100.00;54973.53;2081974;28;20556;-59
2023/10/23 00:58:51;;;;;;;12.40;6.65;;;;;;;-145.87;100.00;54973.53;2081548;28;20057;-59
2023/10/23 00:59:52;;;;;;;11.57;6.72;;;;;;;-145.87;100.00;54973.53;2081249;28;20053;-59
2023/10/23 01:00:54;;;;;;;12.10;6.70;;;;;;;-145.87;100.00;54973.53;2084581;28;20049;-59
2023/10/23 01:01:55;;;;;;;11.30;6.68;;;;;;;-145.87;100.00;54973.53;2089098;28;20044;-59
2023/10/23 01:02:56;;;;;;;9.05;5.85;;;;;;;-145.87;100.00;54973.53;2097903;28;20036;-59
2023/10/23 01:03:59;;;;;;;10.43;6.75;;;;;;;-145.87;100.00;54973.53;2081581;28;20050;-59
2023/10/23 01:05:01;;;;;;;10.40;6.65;;;;;;;-145.87;100.00;54973.53;2081958;28;20049;-59
2023/10/23 01:06:02;;;;;;;12.27;6.35;;;;;;;-145.87;100.00;54973.53;2081882;28;20056;-59
2023/10/23 01:07:04;;;;;;;9.43;6.65;;;;;;;-145.87;100.00;54973.53;2081424;28;20061;-59
2023/10/23 01:08:05;;;;;;;12.50;7.22;;;;;;;-145.87;100.00;54973.53;2089922;28;20488;-59
2023/10/23 01:09:06;;;;;;;10.73;6.78;;;;;;;-145.87;100.00;54973.53;2089608;28;20045;-59
2023/10/23 01:10:08;;;;;;;10.52;6.88;;;;;;;-145.87;100.00;54973.53;2090069;28;20485;-59
2023/10/23 01:11:09;;;;;;;11.68;6.85;;;;;;;-145.87;100.00;54973.53;2090109;28;20091;-59
2023/10/23 01:12:10;;;;;;;11.43;6.93;;;;;;;-145.87;100.00;54973.53;2089344;28;20049;-59
2023/10/23 01:13:11;;;;;;;11.68;6.68;;;;;;;-145.87;100.00;54973.53;2090293;28;20048;-59
2023/10/23 01:14:12;;;;;;;10.55;7.38;;;;;;;-145.87;100.00;54973.53;2090494;28;20059;-59
2023/10/23 01:15:14;;;;;;;9.82;6.28;;;;;;;-145.87;100.00;54973.53;2090275;28;20045;-60
2023/10/23 01:16:15;;;;;;;9.20;6.65;;;;;;;-145.87;100.00;54973.53;2090685;28;20049;-60
2023/10/23 01:17:16;;;;;;;9.27;6.88;;;;;;;-145.87;100.00;54973.53;2089532;28;20057;-60
2023/10/23 01:18:17;;;;;;;12.15;7.65;;;;;;;-145.87;100.00;54973.53;2089659;28;20049;-59
2023/10/23 01:19:18;;;;;;;9.68;7.00;;;;;;;-145.87;100.00;54973.53;2090239;28;20057;-60
2023/10/23 01:20:19;;;;;;;10.63;7.28;;;;;;;-145.87;100.00;54973.53;2089980;28;20064;-59
2023/10/23 01:21:20;;;;;;;9.90;6.70;;;;;;;-145.87;100.00;54973.53;2081440;28;20053;-60
2023/10/23 01:22:22;;;;;;;8.70;6.82;;;;;;;-145.87;100.00;54973.53;2081597;28;20531;-59
2023/10/23 01:23:24;;;;;;;11.05;7.18;;;;;;;-145.87;100.00;54973.53;2081497;28;20049;-59
2023/10/23 01:24:25;;;;;;;11.57;7.00;;;;;;;-145.87;100.00;54973.53;2081652;28;20042;-60
2023/10/23 01:25:27;;;;;;;10.38;7.00;;;;;;;-145.87;100.00;54973.53;2081427;28;20501;-60
2023/10/23 01:26:28;;;;;;;10.55;7.20;;;;;;;-145.87;100.00;54973.53;2090067;28;20053;-60
2023/10/23 01:27:29;;;;;;;10.68;6.78;;;;;;;-145.87;100.00;54973.53;2090249;28;20057;-60
2023/10/23 01:28:30;;;;;;;13.70;7.47;;;;;;;-145.87;100.00;54973.53;2090303;28;20033;-60
2023/10/23 01:29:31;;;;;;;15.07;7.22;;;;;;;-145.87;100.00;54973.53;2090175;28;20060;-59
2023/10/23 01:30:33;;;;;;;11.30;7.28;;;;;;;-145.87;100.00;54973.53;2088610;28;20094;-59
2023/10/23 01:31:34;;;;;;;11.93;7.63;;;;;;;-145.87;100.00;54973.53;2089907;28;20068;-59
2023/10/23 01:32:35;;;;;;;9.15;6.70;;;;;;;-145.87;100.00;54973.53;2089745;28;20060;-60
2023/10/23 01:33:36;;;;;;;8.32;6.82;;;;;;;-145.87;100.00;54973.53;2089623;28;20037;-59
2023/10/23 01:34:38;;;;;;;10.02;7.22;;;;;;;-145.87;100.00;54973.53;2089704;28;20087;-59
2023/10/23 01:35:39;;;;;;;11.50;7.35;;;;;;;-145.87;100.00;54973.53;2090162;28;20496;-59
2023/10/23 01:36:40;;;;;;;12.30;7.40;;;;;;;-145.87;100.00;54973.53;2089613;28;20053;-59
2023/10/23 01:37:41;;;;;;;10.18;7.07;;;;;;;-145.87;100.00;54973.53;2081676;28;20045;-59
2023/10/23 01:38:43;;;;;;;11.43;7.70;;;;;;;-145.87;100.00;54973.53;2089325;28;20045;-59
2023/10/23 01:39:45;;;;;;;10.07;7.68;;;;;;;-145.87;100.00;54973.53;2090044;28;20049;-60
2023/10/23 01:40:46;;;;;;;12.63;7.78;;;;;;;-145.87;100.00;54973.53;2090235;28;20055;-60
2023/10/23 01:41:47;;;;;;;11.18;7.78;;;;;;;-145.87;100.00;54973.53;2090299;28;20377;-59
2023/10/23 01:42:49;;;;;;;10.70;7.45;;;;;;;-145.87;100.00;54973.53;2090351;28;20048;-59
2023/10/23 01:43:50;;;;;;;12.25;7.80;;;;;;;-145.87;100.00;54973.53;2090359;28;20049;-59
2023/10/23 01:44:51;;;;;;;14.15;8.65;;;;;;;-145.87;100.00;54973.53;2090283;28;20049;-59
2023/10/23 01:45:52;;;;;;;11.20;8.05;;;;;;;-145.87;100.00;54973.53;2088810;28;20544;-59
2023/10/23 01:46:53;;;;;;;13.63;8.32;;;;;;;-145.87;100.00;54973.53;2089796;28;20037;-59
2023/10/23 01:47:55;;;;;;;14.20;8.00;;;;;;;-145.87;100.00;54973.53;2090028;28;20049;-60
2023/10/23 01:48:56;;;;;;;12.23;8.30;;;;;;;-145.87;100.00;54973.53;2090081;28;20425;-59
2023/10/23 01:49:58;;;;;;;13.40;8.32;;;;;;;-145.87;100.00;54973.53;2090196;28;20044;-59
2023/10/23 01:51:02;;;;;;;12.23;7.85;;;;;;;-145.87;100.00;54973.53;2090099;28;20441;-59
2023/10/23 01:52:03;;;;;;;11.52;8.38;;;;;;;-145.87;100.00;54973.53;2090157;28;20049;-59
2023/10/23 01:53:04;;;;;;;10.55;8.13;;;;;;;-145.87;100.00;54973.53;2090138;28;20064;-60
2023/10/23 01:54:06;;;;;;;12.13;8.90;;;;;;;-145.87;100.00;54973.53;2090121;28;20061;-59
2023/10/23 01:55:07;;;;;;;11.32;8.55;;;;;;;-145.87;100.00;54973.53;2090265;28;20401;-60
2023/10/23 01:56:09;;;;;;;12.10;8.15;;;;;;;-145.87;100.00;54973.53;2089506;28;20060;-59
2023/10/23 01:57:10;;;;;;;10.98;7.75;;;;;;;-145.87;100.00;54973.53;2089425;28;20056;-60
2023/10/23 01:58:12;;;;;;;12.00;8.43;;;;;;;-145.87;100.00;54973.53;2081538;28;20049;-59
2023/10/23 01:59:13;;;;;;;11.25;8.95;;;;;;;-145.87;100.00;54973.53;2081266;28;20057;-60
2023/10/23 02:00:14;;;;;;;11.02;8.48;;;;;;;-145.87;100.00;54973.53;2089270;28;20048;-59
2023/10/23 02:01:22;;;;;;;11.68;8.85;;;;;;;-145.87;100.00;54973.53;2080377;28;20056;-59
2023/10/23 02:02:23;;;;;;;12.50;8.90;;;;;;;-145.87;100.00;54973.53;2089532;28;20428;-59
2023/10/23 02:03:25;;;;;;;12.77;8.68;;;;;;;-145.87;100.00;54973.53;2089741;28;20066;-60
2023/10/23 02:04:27;;;;;;;11.05;7.72;;;;;;;-145.87;100.00;54973.53;2089507;28;20040;-59
2023/10/23 02:05:29;;;;;;;11.48;8.65;;;;;;;-145.87;100.00;54973.53;2081855;28;20053;-60
2023/10/23 02:06:30;;;;;;;11.55;7.15;;;;;;;-145.87;100.00;54973.53;2081725;28;20045;-60
2023/10/23 02:07:32;;;;;;;11.50;8.00;;;;;;;-145.87;100.00;54973.53;2089609;28;20120;-60
2023/10/23 02:08:33;;;;;;;12.60;8.38;;;;;;;-145.87;100.00;54973.53;2089822;28;20068;-59
2023/10/23 02:09:34;;;;;;;9.68;7.28;;;;;;;-145.87;100.00;54973.53;2090017;28;20477;-59
2023/10/23 02:10:35;;;;;;;11.55;8.07;;;;;;;-145.87;100.00;54973.53;2090126;28;20053;-59
2023/10/23 02:11:36;;;;;;;11.50;7.43;;;;;;;-145.87;100.00;54973.53;2090013;28;20056;-59
2023/10/23 02:12:37;;;;;;;11.77;6.80;;;;;;;-145.87;100.00;54973.53;2090017;28;20040;-59
2023/10/23 02:13:38;;;;;;;10.27;6.55;;;;;;;-145.87;100.00;54973.53;2090203;28;20393;-59
2023/10/23 02:14:39;;;;;;;8.57;6.50;;;;;;;-145.87;100.00;54973.53;2089317;28;20045;-59
2023/10/23 02:15:40;;;;;;;8.07;6.63;;;;;;;-145.87;100.00;54973.53;2089674;28;20049;-59
2023/10/23 02:16:42;;;;;;;8.32;6.07;;;;;;;-145.87;100.00;54973.53;2089997;28;20056;-59
2023/10/23 02:17:43;;;;;;;10.35;7.03;;;;;;;-145.87;100.00;54973.53;2081200;28;20403;-60
2023/10/23 02:18:44;;;;;;;9.40;6.68;;;;;;;-145.87;100.00;54973.53;2088862;28;20049;-59
2023/10/23 02:19:46;;;;;;;10.25;6.65;;;;;;;-145.87;100.00;54973.53;2089211;28;20060;-59
2023/10/23 02:20:47;;;;;;;9.63;6.97;;;;;;;-145.87;100.00;54973.53;2081058;28;20049;-59
2023/10/23 02:21:50;;;;;;;7.97;6.40;;;;;;;-145.87;100.00;54973.53;2089424;28;20048;-59
2023/10/23 02:22:51;;;;;;;9.00;6.65;;;;;;;-145.87;100.00;54973.53;2089886;28;20048;-60
2023/10/23 02:23:53;;;;;;;11.68;6.55;;;;;;;-145.87;100.00;54973.53;2090130;28;20080;-60
2023/10/23 02:24:54;;;;;;;8.73;6.65;;;;;;;-145.87;100.00;54973.53;2089390;28;20440;-59
2023/10/23 02:25:55;;;;;;;8.02;5.72;;;;;;;-145.87;100.00;54973.53;2089337;28;20060;-60
2023/10/23 02:26:56;;;;;;;11.57;7.15;;;;;;;-145.87;100.00;54973.53;2089484;28;20064;-59
2023/10/23 02:27:57;;;;;;;8.55;6.13;;;;;;;-145.87;100.00;54973.53;2089296;28;20048;-60
2023/10/23 02:29:00;;;;;;;12.35;6.30;;;;;;;-145.87;100.00;54973.53;2089686;28;20076;-59
2023/10/23 02:30:01;;;;;;;7.97;5.70;;;;;;;-145.87;100.00;54973.53;2089059;28;20068;-59
2023/10/23 02:31:05;;;;;;;12.10;6.07;;;;;;;-145.87;100.00;54973.53;2089018;28;20069;-59
2023/10/23 02:32:07;;;;;;;10.02;5.93;;;;;;;-145.87;100.00;54973.53;2090102;28;20038;-58
2023/10/23 02:33:08;;;;;;;11.80;6.50;;;;;;;-145.87;100.00;54973.53;2089861;28;20433;-59
2023/10/23 02:34:09;;;;;;;10.60;6.43;;;;;;;-145.87;100.00;54973.53;2089916;28;20045;-59
2023/10/23 02:35:10;;;;;;;10.23;6.20;;;;;;;-145.87;100.00;54973.53;2089255;28;20056;-59
2023/10/23 02:36:12;;;;;;;8.93;6.47;;;;;;;-145.87;100.00;54973.53;2081193;28;20065;-60
2023/10/23 02:37:13;;;;;;;9.73;6.47;;;;;;;-145.87;100.00;54973.53;2089272;28;20044;-60
2023/10/23 02:38:14;;;;;;;10.60;6.38;;;;;;;-145.87;100.00;54973.53;2091009;28;20060;-60
2023/10/23 02:39:15;;;;;;;9.60;6.13;;;;;;;-145.87;100.00;54973.53;2091482;28;20481;-60
2023/10/23 02:40:17;;;;;;;6.95;5.78;;;;;;;-145.87;100.00;54973.53;2091413;28;20415;-59
2023/10/23 02:41:18;;;;;;;8.93;5.75;;;;;;;-145.87;100.00;54973.53;2092039;28;20053;-59
2023/10/23 02:42:19;;;;;;;8.23;5.63;;;;;;;-145.87;100.00;54973.53;2090534;28;20060;-59
2023/10/23 02:43:20;;;;;;;11.18;6.03;;;;;;;-145.87;100.00;54973.53;2090570;28;20068;-59
2023/10/23 02:44:22;;;;;;;9.02;6.13;;;;;;;-145.87;100.00;54973.53;2091272;28;20536;-59
2023/10/23 02:45:23;;;;;;;9.00;5.82;;;;;;;-145.87;100.00;54973.53;2091113;28;20057;-60
2023/10/23 02:46:24;;;;;;;8.88;5.65;;;;;;;-145.87;100.00;54973.53;2091332;28;20393;-59
2023/10/23 02:47:25;;;;;;;9.35;5.60;;;;;;;-145.87;100.00;54973.53;2090387;28;20064;-59
2023/10/23 02:48:26;;;;;;;9.25;5.85;;;;;;;-145.87;100.00;54973.53;2090826;28;20037;-59
2023/10/23 02:49:28;;;;;;;8.02;5.50;;;;;;;-145.87;100.00;54973.53;2091281;28;20079;-59
2023/10/23 02:50:29;;;;;;;7.20;5.80;;;;;;;-145.87;100.00;54973.53;2091437;28;20469;-60
2023/10/23 02:51:30;;;;;;;9.98;5.75;;;;;;;-145.87;100.00;54973.53;2090932;28;20059;-59
2023/10/23 02:52:32;;;;;;;9.85;5.72;;;;;;;-145.87;100.00;54973.53;2090728;28;20049;-59
2023/10/23 02:53:33;;;;;;;8.15;5.70;;;;;;;-145.87;100.00;54973.53;2091532;28;20057;-59
2023/10/23 02:54:35;;;;;;;7.60;5.53;;;;;;;-145.87;100.00;54973.53;2091434;28;20036;-60
2023/10/23 02:55:36;;;;;;;6.53;5.32;;;;;;;-145.87;100.00;54973.53;2090925;28;20497;-60
2023/10/23 02:56:37;;;;;;;8.25;6.10;;;;;;;-145.87;100.00;54973.53;2090760;28;20068;-60
2023/10/23 02:57:39;;;;;;;8.13;5.72;;;;;;;-145.87;100.00;54973.53;2090678;28;20041;-59
2023/10/23 02:58:40;;;;;;;11.50;5.85;;;;;;;-145.87;100.00;54973.53;2091006;28;20048;-57
2023/10/23 02:59:46;;;;;;;8.35;5.05;;;;;;;-145.87;100.00;54973.53;2091293;28;20388;-59
2023/10/23 03:00:47;;;;;;;7.75;5.53;;;;;;;-145.87;100.00;54973.53;2091337;28;20041;-59
2023/10/23 03:01:48;;;;;;;8.55;5.22;;;;;;;-145.87;100.00;54973.53;2090915;28;20049;-60
2023/10/23 03:02:49;;;;;;;7.82;5.55;;;;;;;-145.87;100.00;54973.53;2091321;28;20083;-60
2023/10/23 03:03:51;;;;;;;9.10;5.72;;;;;;;-145.87;100.00;54973.53;2091119;28;20040;-59
2023/10/23 03:04:52;;;;;;;8.50;5.68;;;;;;;-145.87;100.00;54973.53;2091517;28;20053;-60
2023/10/23 03:05:53;;;;;;;8.82;5.68;;;;;;;-145.87;100.00;54973.53;2091372;28;20385;-60
2023/10/23 03:06:54;;;;;;;8.32;5.70;;;;;;;-145.87;100.00;54973.53;2091519;28;20064;-60
2023/10/23 03:07:55;;;;;;;8.32;5.97;;;;;;;-145.87;100.00;54973.53;2091401;28;20053;-59
2023/10/23 03:08:56;;;;;;;9.70;6.03;;;;;;;-145.87;100.00;54973.53;2091176;28;20060;-59
2023/10/23 03:09:58;;;;;;;10.13;5.50;;;;;;;-145.87;100.00;54973.53;2090458;28;20425;-59
2023/10/23 03:10:59;;;;;;;8.88;5.45;;;;;;;-145.87;100.00;54973.53;2090280;28;20056;-58
2023/10/23 03:12:01;;;;;;;9.90;5.13;;;;;;;-145.87;100.00;54973.53;2090910;28;20060;-59
2023/10/23 03:13:02;;;;;;;9.63;5.68;;;;;;;-145.87;100.00;54973.53;2082446;28;20057;-60
2023/10/23 03:14:03;;;;;;;7.50;5.35;;;;;;;-145.87;100.00;54973.53;2090473;28;20052;-60
2023/10/23 03:15:05;;;;;;;7.47;5.32;;;;;;;-145.87;100.00;54973.53;2091063;28;20057;-60
2023/10/23 03:16:07;;;;;;;8.10;5.40;;;;;;;-145.87;100.00;54973.53;2081877;28;20505;-59
2023/10/23 03:17:08;;;;;;;7.97;5.13;;;;;;;-145.87;100.00;54973.53;2082314;28;20050;-59
2023/10/23 03:18:10;;;;;;;8.13;5.40;;;;;;;-145.87;100.00;54973.53;2090487;28;20057;-59
2023/10/23 03:19:11;;;;;;;7.53;4.95;;;;;;;-145.87;100.00;54973.53;2090827;28;20417;-59
2023/10/23 03:20:12;;;;;;;7.60;5.72;;;;;;;-145.87;100.00;54973.53;2091215;28;20048;-60
2023/10/23 03:21:15;;;;;;;10.45;5.55;;;;;;;-145.87;100.00;54973.53;2090565;28;20045;-59
2023/10/23 03:22:16;;;;;;;8.35;5.70;;;;;;;-145.87;100.00;54973.53;2090481;28;20111;-59
2023/10/23 03:23:17;;;;;;;9.25;5.90;;;;;;;-145.87;100.00;54973.53;2091091;28;20041;-59
2023/10/23 03:24:18;;;;;;;8.20;5.82;;;;;;;-145.87;100.00;54973.53;2091109;28;20049;-60
2023/10/23 03:25:19;;;;;;;9.13;6.30;;;;;;;-145.87;100.00;54973.53;2090297;28;20052;-59
2023/10/23 03:26:20;;;;;;;10.95;6.47;;;;;;;-145.87;100.00;54973.53;2090372;28;20040;-59
2023/10/23 03:27:21;;;;;;;9.82;6.90;;;;;;;-145.87;100.00;54973.53;2090823;28;20412;-59
2023/10/23 03:28:23;;;;;;;11.77;6.13;;;;;;;-145.87;100.00;54973.53;2090482;28;20504;-59
2023/10/23 03:29:25;;;;;;;10.30;6.72;;;;;;;-145.87;100.00;54973.53;2090499;28;20056;-59
2023/10/23 03:30:26;;;;;;;9.52;6.28;;;;;;;-145.87;100.00;54973.53;2090379;28;20056;-59
2023/10/23 03:31:28;;;;;;;8.25;6.38;;;;;;;-145.87;100.00;54973.53;2090518;28;20509;-59
2023/10/23 03:32:30;;;;;;;9.20;6.22;;;;;;;-145.87;100.00;54973.53;2090684;28;20049;-59
2023/10/23 03:33:32;;;;;;;8.55;6.63;;;;;;;-145.87;100.00;54973.53;2091114;28;20041;-60
2023/10/23 03:34:33;;;;;;;8.05;5.38;;;;;;;-145.87;100.00;54973.53;2090856;28;20057;-59
2023/10/23 03:35:35;;;;;;;10.15;5.93;;;;;;;-145.87;100.00;54973.53;2091677;28;20416;-60
2023/10/23 03:36:36;;;;;;;10.35;6.38;;;;;;;-145.87;100.00;54973.53;2090600;28;20075;-60
2023/10/23 03:37:37;;;;;;;11.63;7.88;;;;;;;-145.87;100.00;54973.53;2081568;28;20418;-59
2023/10/23 03:38:38;;;;;;;7.93;6.55;;;;;;;-145.87;100.00;54973.53;2090332;28;20052;-59
2023/10/23 03:39:40;;;;;;;9.82;6.78;;;;;;;-145.87;100.00;54973.53;2098586;28;20044;-59
2023/10/23 03:40:41;;;;;;;11.15;6.80;;;;;;;-145.87;100.00;54973.53;2090818;28;20043;-60
2023/10/23 03:41:42;;;;;;;7.47;6.25;;;;;;;-145.87;100.00;54973.53;2090584;28;20053;-59
2023/10/23 03:42:44;;;;;;;9.88;6.75;;;;;;;-145.87;100.00;54973.53;2091132;28;20052;-59
2023/10/23 03:43:45;;;;;;;8.88;6.55;;;;;;;-145.87;100.00;54973.53;2090760;28;20045;-59
2023/10/23 03:44:46;;;;;;;9.20;6.68;;;;;;;-145.87;100.00;54973.53;2090038;28;20072;-60
2023/10/23 03:45:47;;;;;;;9.85;7.40;;;;;;;-145.87;100.00;54973.53;2090318;28;20473;-59
2023/10/23 03:46:49;;;;;;;8.55;6.40;;;;;;;-145.87;100.00;54973.53;2090920;28;20041;-59
2023/10/23 03:47:50;;;;;;;8.02;6.75;;;;;;;-145.87;100.00;54973.53;2090448;28;20044;-59
2023/10/23 03:48:52;;;;;;;8.77;6.45;;;;;;;-145.87;100.00;54973.53;2089592;28;20057;-59
2023/10/23 03:49:53;;;;;;;9.68;6.82;;;;;;;-145.87;100.00;54973.53;2090895;28;20525;-60
2023/10/23 03:50:54;;;;;;;13.23;7.03;;;;;;;-145.87;100.00;54973.53;2090968;28;20049;-59
2023/10/23 03:51:55;;;;;;;9.93;6.85;;;;;;;-145.87;100.00;54973.53;2090961;28;20068;-59
2023/10/23 03:52:56;;;;;;;9.57;7.28;;;;;;;-145.87;100.00;54973.53;2090762;28;20037;-60
2023/10/23 03:53:58;;;;;;;9.55;7.13;;;;;;;-145.87;100.00;54973.53;2090738;28;20060;-59
2023/10/23 03:54:59;;;;;;;11.45;7.57;;;;;;;-145.87;100.00;54973.53;2090807;28;20045;-59
2023/10/23 03:56:04;;;;;;;10.15;7.07;;;;;;;-145.87;100.00;54973.53;2090873;28;20393;-59
2023/10/23 03:57:05;;;;;;;10.82;7.00;;;;;;;-145.87;100.00;54973.53;2090727;28;20049;-59
2023/10/23 03:58:06;;;;;;;10.05;7.45;;;;;;;-145.87;100.00;54973.53;2090819;28;20477;-60
2023/10/23 03:59:07;;;;;;;9.32;7.10;;;;;;;-145.87;100.00;54973.53;2089917;28;20059;-59
2023/10/23 04:00:10;;;;;;;9.45;7.50;;;;;;;-145.87;100.00;54973.53;2089943;28;20053;-59
2023/10/23 04:01:14;;;;;;;10.48;7.78;;;;;;;-145.87;100.00;54973.53;2090975;28;20052;-62
2023/10/23 04:02:15;;;;;;;10.30;8.38;;;;;;;-145.87;100.00;54973.53;2090913;28;20384;-59
2023/10/23 04:03:16;;;;;;;11.10;7.80;;;;;;;-145.87;100.00;54973.53;2090870;28;20044;-59
2023/10/23 04:04:17;;;;;;;12.32;8.13;;;;;;;-145.87;100.00;54973.53;2090646;28;20055;-59
2023/10/23 04:05:19;;;;;;;10.85;8.57;;;;;;;-145.87;100.00;54973.53;2090641;28;20056;-60
2023/10/23 04:06:20;;;;;;;13.43;8.45;;;;;;;-145.87;100.00;54973.53;2090411;28;20504;-59
2023/10/23 04:07:21;;;;;;;12.10;8.30;;;;;;;-145.87;100.00;54973.53;2089616;28;20052;-59
2023/10/23 04:08:22;;;;;;;15.27;9.00;;;;;;;-145.87;100.00;54973.53;2090744;28;20044;-59
2023/10/23 04:09:23;;;;;;;10.82;8.45;;;;;;;-145.87;100.00;54973.53;2090839;28;20087;-60
2023/10/23 04:10:24;;;;;;;11.25;7.45;;;;;;;-145.87;100.00;54973.53;2090569;28;20481;-59
2023/10/23 04:11:26;;;;;;;12.00;7.53;;;;;;;-145.87;100.00;54973.53;2090918;28;20048;-59
2023/10/23 04:12:27;;;;;;;11.70;7.97;;;;;;;-145.87;100.00;54973.53;2090741;28;20053;-60
2023/10/23 04:13:28;;;;;;;14.68;9.48;;;;;;;-145.87;100.00;54973.53;2090738;28;20057;-59
2023/10/23 04:14:30;;;;;;;12.82;8.90;;;;;;;-145.87;100.00;54973.53;2091134;28;20445;-59
2023/10/23 04:15:31;;;;;;;11.20;7.68;;;;;;;-145.87;100.00;54973.53;2090727;28;20041;-59
2023/10/23 04:16:32;;;;;;;10.93;7.45;;;;;;;-145.87;100.00;54973.53;2090707;28;20056;-59
2023/10/23 04:17:33;;;;;;;11.23;8.15;;;;;;;-145.87;100.00;54973.53;2090685;28;20049;-59
2023/10/23 04:18:35;;;;;;;9.65;7.85;;;;;;;-145.87;100.00;54973.53;2090732;28;20045;-59
2023/10/23 04:19:36;;;;;;;11.35;7.85;;;;;;;-145.87;100.00;54973.53;2090615;28;20045;-59
2023/10/23 04:20:37;;;;;;;11.15;7.85;;;;;;;-145.87;100.00;54973.53;2090619;28;20060;-59
2023/10/23 04:21:40;;;;;;;13.07;7.85;;;;;;;-145.87;100.00;54973.53;2090542;28;20045;-59
2023/10/23 04:22:42;;;;;;;15.00;7.80;;;;;;;-145.87;100.00;54973.53;2090455;28;20057;-59
2023/10/23 04:23:43;;;;;;;14.45;9.07;;;;;;;-145.87;100.00;54973.53;2090146;28;20072;-58
2023/10/23 04:24:45;;;;;;;12.95;8.55;;;;;;;-145.87;100.00;54973.53;2090876;28;20493;-59
2023/10/23 04:25:54;;;;;;;11.85;8.65;;;;;;;-145.87;100.00;54973.53;2090880;28;20055;-59
2023/10/23 04:26:55;;;;;;;14.32;9.13;;;;;;;-145.87;100.00;54973.53;2090004;28;20505;-60
2023/10/23 04:27:56;;;;;;;10.27;7.65;;;;;;;-145.87;100.00;54973.53;2090158;28;20051;-59
2023/10/23 04:28:57;;;;;;;10.73;8.25;;;;;;;-145.87;100.00;54973.53;2090806;28;20041;-60
2023/10/23 04:30:01;;;;;;;11.13;8.77;;;;;;;-145.87;100.00;54973.53;2090609;28;20052;-59
2023/10/23 04:31:03;;;;;;;12.27;8.88;;;;;;;-145.87;100.00;54973.53;2090139;28;20523;-58
2023/10/23 04:32:04;;;;;;;10.82;7.55;;;;;;;-145.87;100.00;54973.53;2090518;28;20057;-58
2023/10/23 04:33:05;;;;;;;11.05;8.15;;;;;;;-145.87;100.00;54973.53;2090283;28;20059;-58
2023/10/23 04:34:07;;;;;;;11.35;7.78;;;;;;;-145.87;100.00;54973.53;2090631;28;20049;-58
2023/10/23 04:35:08;;;;;;;11.93;7.65;;;;;;;-145.87;100.00;54973.53;2090598;28;20052;-59
2023/10/23 04:36:09;;;;;;;11.70;8.77;;;;;;;-145.87;100.00;54973.53;2090791;28;20060;-59
2023/10/23 04:37:10;;;;;;;9.75;8.05;;;;;;;-145.87;100.00;54973.53;2090549;28;20477;-59